Scout — WCZ2046 — position and weather

sailwx.info

Track history (hours):
 
Tides and Currents Weather Stations Pressure Air Temp Water Temp Dewpoint Dewpoint Depression Visibility Wind Speed Wind Dir Waves Ship Positions

Scout

Owner: Crowley Marine Services, SEATTLE, WA. More information available from US FCC via Universal Licensing System and Coast Guard Vessel Documentation Center.

Last reported at 2015-Jul-30 22:33 UTC. Time now 2015-Jul-30 23:03 UTC.
Position N 32°42' W 117°09'.

; draft 5.6 m.

Type: Tug. MMSI: 366764730.

Date/timePositionNaut miles runAvg speedWind from/ knotsBaromVisibWave heightAir tempDewpointWater temp
2015-Jul-30 22:33N 32°42' W 117°09'0 0.0
2015-Jul-30 21:33N 32°42' W 117°09'0 0.0
2015-Jul-30 20:33N 32°42' W 117°09'0 0.0
2015-Jul-30 19:33N 32°42' W 117°09'0 0.0
2015-Jul-30 18:32N 32°42' W 117°09'0 0.0
2015-Jul-30 15:32N 32°42' W 117°09'0 0.0
2015-Jul-30 14:23N 32°42' W 117°09'0 0.0
2015-Jul-30 13:30N 32°42' W 117°09'0 0.0
2015-Jul-30 12:33N 32°42' W 117°09'0 0.0
2015-Jul-30 11:33N 32°42' W 117°09'0 0.0
2015-Jul-30 10:33N 32°42' W 117°09'0 0.0
2015-Jul-30 09:33N 32°42' W 117°09'0 0.0
2015-Jul-30 08:33N 32°42' W 117°09'0 0.0
2015-Jul-30 07:30N 32°42' W 117°09'0 0.0
2015-Jul-30 06:33N 32°42' W 117°09'0 0.0
2015-Jul-30 05:33N 32°42' W 117°09'0 0.0
2015-Jul-30 04:33N 32°42' W 117°09'0 0.0
2015-Jul-30 03:30N 32°42' W 117°09'0 0.0
2015-Jul-30 02:31N 32°42' W 117°09'0 0.0
2015-Jul-30 01:33N 32°42' W 117°09'0 0.0
2015-Jul-30 00:32N 32°42' W 117°09'3 3.4
2015-Jul-29 23:33N 32°39' W 117°07'3 3.1
2015-Jul-29 22:28N 32°42' W 117°09'0 0.0
2015-Jul-29 21:25N 32°42' W 117°09'0 0.1
2015-Jul-29 20:32N 32°42' W 117°09'0 0.0
2015-Jul-29 19:33N 32°42' W 117°09'0 0.0
2015-Jul-29 18:29N 32°42' W 117°09'0 0.0
2015-Jul-29 17:23N 32°42' W 117°09'0 0.0
2015-Jul-29 16:33N 32°42' W 117°09'0 0.0
2015-Jul-29 15:33N 32°42' W 117°09'0 0.0
2015-Jul-29 13:32N 32°42' W 117°09'0 0.0
2015-Jul-29 10:18N 32°42' W 117°09'0 0.0
2015-Jul-29 09:32N 32°42' W 117°09'0 0.0
2015-Jul-29 08:33N 32°42' W 117°09'0 0.0
2015-Jul-29 07:24N 32°42' W 117°09'0 0.0
2015-Jul-29 06:28N 32°42' W 117°09'0 0.0
2015-Jul-29 05:33N 32°42' W 117°09'0 0.0
2015-Jul-29 04:29N 32°42' W 117°09'0 0.0
2015-Jul-29 03:33N 32°42' W 117°09'3 3.4
2015-Jul-29 02:33N 32°39' W 117°07'3 3.1
2015-Jul-29 01:33N 32°41' W 117°09'0 0.3
2015-Jul-29 00:32N 32°42' W 117°09'0 0.0
2015-Jul-28 22:08N 32°42' W 117°09'0 0.0
2015-Jul-28 21:33N 32°42' W 117°09'0 0.0
2015-Jul-28 20:24N 32°42' W 117°09'0 0.1
2015-Jul-28 19:32N 32°42' W 117°09'0 0.1
2015-Jul-28 18:23N 32°42' W 117°09'0 0.0
2015-Jul-28 17:33N 32°42' W 117°09'0 0.0
2015-Jul-28 16:14N 32°42' W 117°09'0 0.0
2015-Jul-28 15:32N 32°42' W 117°09'0 0.0
2015-Jul-28 14:29N 32°42' W 117°09'0 0.0
2015-Jul-28 13:33N 32°42' W 117°09'0 0.0
2015-Jul-28 12:32N 32°42' W 117°09'0 0.0
2015-Jul-28 11:33N 32°42' W 117°09'0 0.1
2015-Jul-28 10:33N 32°42' W 117°09'3 2.9
2015-Jul-28 09:33N 32°39' W 117°07'3 2.8
2015-Jul-28 08:33N 32°42' W 117°09'0 0.0
2015-Jul-28 07:33N 32°42' W 117°09'0 0.0
2015-Jul-28 06:33N 32°42' W 117°09'0 0.0
2015-Jul-28 05:28N 32°42' W 117°09'0 0.0
2015-Jul-28 04:33N 32°42' W 117°09'0 0.0
2015-Jul-28 01:09N 32°42' W 117°09'4 6.7
2015-Jul-28 00:33N 32°41' W 117°14'3 2.8
2015-Jul-27 23:33N 32°43' W 117°11'2 1.7
2015-Jul-27 22:33N 32°42' W 117°10'0 0.5
2015-Jul-27 21:33N 32°42' W 117°09'0 0.0
2015-Jul-27 20:31N 32°42' W 117°09'0 0.0
2015-Jul-27 19:33N 32°42' W 117°09'0 0.0
2015-Jul-27 18:32N 32°42' W 117°09'0 0.0
2015-Jul-27 17:32N 32°42' W 117°09'0 0.0
2015-Jul-27 16:33N 32°42' W 117°09'0 0.0
2015-Jul-27 15:24N 32°42' W 117°09'0 0.0
2015-Jul-27 14:30N 32°42' W 117°09'0 0.0
2015-Jul-27 13:33N 32°42' W 117°09'0 0.0
2015-Jul-27 11:33N 32°42' W 117°09'0 0.0
2015-Jul-27 10:24N 32°42' W 117°09'0 0.0
2015-Jul-27 09:32N 32°42' W 117°09'0 0.0
2015-Jul-27 08:33N 32°42' W 117°09'0 0.0
2015-Jul-27 07:31N 32°42' W 117°09'0 0.0
2015-Jul-27 06:30N 32°42' W 117°09'0 0.0
2015-Jul-27 04:20N 32°42' W 117°09'0 0.0
2015-Jul-27 03:25N 32°42' W 117°09'0 0.0
2015-Jul-27 02:33N 32°42' W 117°09'0 0.0
2015-Jul-27 01:31N 32°42' W 117°09'0 0.0
2015-Jul-27 00:29N 32°42' W 117°09'0 0.0
2015-Jul-26 23:29N 32°42' W 117°09'0 0.0
2015-Jul-26 22:32N 32°42' W 117°09'0 0.0
2015-Jul-26 19:27N 32°42' W 117°09'0 0.1
2015-Jul-26 18:33N 32°42' W 117°09'0 0.0
2015-Jul-26 17:23N 32°42' W 117°09'0 0.0
2015-Jul-26 16:21N 32°42' W 117°09'0 0.0
2015-Jul-26 15:33N 32°42' W 117°09'0 0.0
2015-Jul-26 14:33N 32°42' W 117°09'0 0.0
2015-Jul-26 13:33N 32°42' W 117°09'2 2.4
2015-Jul-26 12:33N 32°43' W 117°11'2 2.3
2015-Jul-26 11:31N 32°42' W 117°09'0 0.0
2015-Jul-26 10:33N 32°42' W 117°09'0 0.0
2015-Jul-26 09:33N 32°42' W 117°09'0 0.0
2015-Jul-26 08:33N 32°42' W 117°09'0 0.0
2015-Jul-26 07:33N 32°42' W 117°09'0 0.0
2015-Jul-26 06:11N 32°42' W 117°09'0 0.0
2015-Jul-26 05:32N 32°42' W 117°09'0 0.0
2015-Jul-26 04:33N 32°42' W 117°09'0 0.0
2015-Jul-26 03:28N 32°42' W 117°09'0 0.0
2015-Jul-26 02:33N 32°42' W 117°09'0 0.0
2015-Jul-26 01:33N 32°42' W 117°09'0 0.1
2015-Jul-26 00:33N 32°42' W 117°09'3 2.6
2015-Jul-25 23:33N 32°40' W 117°07'3 2.6
2015-Jul-25 22:33N 32°42' W 117°09'0 0.0
2015-Jul-25 21:28N 32°42' W 117°09'0 0.0
2015-Jul-25 20:28N 32°42' W 117°09'0 0.0
2015-Jul-25 19:29N 32°42' W 117°09'0 0.0
2015-Jul-25 18:12N 32°42' W 117°09'0 0.0
2015-Jul-25 17:32N 32°42' W 117°09'0 0.0
2015-Jul-25 16:31N 32°42' W 117°09'0 0.0
2015-Jul-25 15:33N 32°42' W 117°09'0 0.0
2015-Jul-25 14:33N 32°42' W 117°09'0 0.0
2015-Jul-25 12:33N 32°42' W 117°09'0 0.1
2015-Jul-25 11:33N 32°42' W 117°09'0 0.0
2015-Jul-25 10:32N 32°42' W 117°09'0 0.0
2015-Jul-25 07:17N 32°42' W 117°09'1 0.5
2015-Jul-25 05:19N 32°41' W 117°08'0 0.3
2015-Jul-25 04:33N 32°41' W 117°08'1 0.7
2015-Jul-25 03:13N 32°42' W 117°09'0 0.0
2015-Jul-25 01:28N 32°42' W 117°09'3 3.7
2015-Jul-25 00:33N 32°39' W 117°07'1 1.2
2015-Jul-24 23:34N 32°40' W 117°08'2 0.3
2015-Jul-24 16:24N 32°42' W 117°09'0 0.0
2015-Jul-24 15:32N 32°42' W 117°09'0 0.0
2015-Jul-24 14:26N 32°42' W 117°09'3 3.5
2015-Jul-24 13:29N 32°39' W 117°07'3 0.3
2015-Jul-24 00:27N 32°42' W 117°09'0 0.0
2015-Jul-23 23:32N 32°42' W 117°09'0 0.0
2015-Jul-23 22:08N 32°42' W 117°09'0 0.0
2015-Jul-23 21:33N 32°42' W 117°09'0 0.1
2015-Jul-23 20:33N 32°42' W 117°09'1 1.1
2015-Jul-23 19:33N 32°41' W 117°08'1 1.0
2015-Jul-23 18:25N 32°42' W 117°09'0 0.0
2015-Jul-23 16:29N 32°42' W 117°09'0 0.0
2015-Jul-23 14:05N 32°42' W 117°09'3 5.7
2015-Jul-23 13:33N 32°39' W 117°07'3 3.0
2015-Jul-23 12:32N 32°42' W 117°09'0 0.0
2015-Jul-23 11:15N 32°42' W 117°09'3 4.3
2015-Jul-23 10:33N 32°39' W 117°07'2 2.5
2015-Jul-23 09:33N 32°41' W 117°09'0 0.0
2015-Jul-23 08:33N 32°41' W 117°09'1 1.3
2015-Jul-23 07:33N 32°40' W 117°08'1 1.2
2015-Jul-23 06:33N 32°41' W 117°09'1 1.3
2015-Jul-23 05:33N 32°40' W 117°08'2 0.4
2015-Jul-23 00:19N 32°42' W 117°10'0 0.0
2015-Jul-22 23:24N 32°42' W 117°10'0 0.5
2015-Jul-22 22:33N 32°42' W 117°09'0 0.0
2015-Jul-22 21:33N 32°42' W 117°09'0 0.0
2015-Jul-22 20:29N 32°42' W 117°09'0 0.0
2015-Jul-22 19:13N 32°42' W 117°09'0 0.0
2015-Jul-22 18:28N 32°42' W 117°09'0 0.0
2015-Jul-22 17:33N 32°42' W 117°09'0 0.0
2015-Jul-22 16:18N 32°42' W 117°09'0 0.0
2015-Jul-22 15:25N 32°42' W 117°09'2 2.4
2015-Jul-22 14:27N 32°40' W 117°08'4 4.3
2015-Jul-22 13:33N 32°43' W 117°11'2 0.1
2015-Jul-21 23:33N 32°41' W 117°09'2 2.1
2015-Jul-21 22:33N 32°40' W 117°07'3 1.8
2015-Jul-21 21:07N 32°42' W 117°09'0 0.0
2015-Jul-21 20:28N 32°42' W 117°09'0 0.0
2015-Jul-21 18:18N 32°42' W 117°09'0 0.0
2015-Jul-21 17:22N 32°42' W 117°09'0 0.0
2015-Jul-21 16:33N 32°42' W 117°09'0 0.0
2015-Jul-21 15:33N 32°42' W 117°09'1 0.7
2015-Jul-21 14:33N 32°41' W 117°09'0 0.4
2015-Jul-21 13:33N 32°41' W 117°08'2 2.0
2015-Jul-21 12:33N 32°39' W 117°07'3 3.0
2015-Jul-21 11:32N 32°42' W 117°09'0 0.0
2015-Jul-21 06:29N 32°42' W 117°09'0 0.0
2015-Jul-21 03:15N 32°42' W 117°09'0 0.0
2015-Jul-20 23:22N 32°42' W 117°09'3 4.2
2015-Jul-20 22:33N 32°39' W 117°07'  
Track history (hours):
 
Tides and Currents Weather Stations Pressure Air Temp Water Temp Dewpoint Dewpoint Depression Visibility Wind Speed Wind Dir Waves Ship Positions

Scout

Owner: Crowley Marine Services, SEATTLE, WA. More information available from US FCC via Universal Licensing System and Coast Guard Vessel Documentation Center.

Last reported at 2015-Jul-30 22:33 UTC. Time now 2015-Jul-30 23:03 UTC.
Position N 32°42' W 117°09'.

; draft 5.6 m.

Type: Tug. MMSI: 366764730.

Date/timePositionNaut miles runAvg speedWind from/ knotsBaromVisibWave heightAir tempDewpointWater temp
2015-Jul-30 22:33N 32°42' W 117°09'0 0.0
2015-Jul-30 21:33N 32°42' W 117°09'0 0.0
2015-Jul-30 20:33N 32°42' W 117°09'0 0.0
2015-Jul-30 19:33N 32°42' W 117°09'0 0.0
2015-Jul-30 18:32N 32°42' W 117°09'0 0.0
2015-Jul-30 15:32N 32°42' W 117°09'0 0.0
2015-Jul-30 14:23N 32°42' W 117°09'0 0.0
2015-Jul-30 13:30N 32°42' W 117°09'0 0.0
2015-Jul-30 12:33N 32°42' W 117°09'0 0.0
2015-Jul-30 11:33N 32°42' W 117°09'0 0.0
2015-Jul-30 10:33N 32°42' W 117°09'0 0.0
2015-Jul-30 09:33N 32°42' W 117°09'0 0.0
2015-Jul-30 08:33N 32°42' W 117°09'0 0.0
2015-Jul-30 07:30N 32°42' W 117°09'0 0.0
2015-Jul-30 06:33N 32°42' W 117°09'0 0.0
2015-Jul-30 05:33N 32°42' W 117°09'0 0.0
2015-Jul-30 04:33N 32°42' W 117°09'0 0.0
2015-Jul-30 03:30N 32°42' W 117°09'0 0.0
2015-Jul-30 02:31N 32°42' W 117°09'0 0.0
2015-Jul-30 01:33N 32°42' W 117°09'0 0.0
2015-Jul-30 00:32N 32°42' W 117°09'3 3.4
2015-Jul-29 23:33N 32°39' W 117°07'3 3.1
2015-Jul-29 22:28N 32°42' W 117°09'0 0.0
2015-Jul-29 21:25N 32°42' W 117°09'0 0.1
2015-Jul-29 20:32N 32°42' W 117°09'0 0.0
2015-Jul-29 19:33N 32°42' W 117°09'0 0.0
2015-Jul-29 18:29N 32°42' W 117°09'0 0.0
2015-Jul-29 17:23N 32°42' W 117°09'0 0.0
2015-Jul-29 16:33N 32°42' W 117°09'0 0.0
2015-Jul-29 15:33N 32°42' W 117°09'0 0.0
2015-Jul-29 13:32N 32°42' W 117°09'0 0.0
2015-Jul-29 10:18N 32°42' W 117°09'0 0.0
2015-Jul-29 09:32N 32°42' W 117°09'0 0.0
2015-Jul-29 08:33N 32°42' W 117°09'0 0.0
2015-Jul-29 07:24N 32°42' W 117°09'0 0.0
2015-Jul-29 06:28N 32°42' W 117°09'0 0.0
2015-Jul-29 05:33N 32°42' W 117°09'0 0.0
2015-Jul-29 04:29N 32°42' W 117°09'0 0.0
2015-Jul-29 03:33N 32°42' W 117°09'3 3.4
2015-Jul-29 02:33N 32°39' W 117°07'3 3.1
2015-Jul-29 01:33N 32°41' W 117°09'0 0.3
2015-Jul-29 00:32N 32°42' W 117°09'0 0.0
2015-Jul-28 22:08N 32°42' W 117°09'0 0.0
2015-Jul-28 21:33N 32°42' W 117°09'0 0.0
2015-Jul-28 20:24N 32°42' W 117°09'0 0.1
2015-Jul-28 19:32N 32°42' W 117°09'0 0.1
2015-Jul-28 18:23N 32°42' W 117°09'0 0.0
2015-Jul-28 17:33N 32°42' W 117°09'0 0.0
2015-Jul-28 16:14N 32°42' W 117°09'0 0.0
2015-Jul-28 15:32N 32°42' W 117°09'0 0.0
2015-Jul-28 14:29N 32°42' W 117°09'0 0.0
2015-Jul-28 13:33N 32°42' W 117°09'0 0.0
2015-Jul-28 12:32N 32°42' W 117°09'0 0.0
2015-Jul-28 11:33N 32°42' W 117°09'0 0.1
2015-Jul-28 10:33N 32°42' W 117°09'3 2.9
2015-Jul-28 09:33N 32°39' W 117°07'3 2.8
2015-Jul-28 08:33N 32°42' W 117°09'0 0.0
2015-Jul-28 07:33N 32°42' W 117°09'0 0.0
2015-Jul-28 06:33N 32°42' W 117°09'0 0.0
2015-Jul-28 05:28N 32°42' W 117°09'0 0.0
2015-Jul-28 04:33N 32°42' W 117°09'0 0.0
2015-Jul-28 01:09N 32°42' W 117°09'4 6.7
2015-Jul-28 00:33N 32°41' W 117°14'3 2.8
2015-Jul-27 23:33N 32°43' W 117°11'2 1.7
2015-Jul-27 22:33N 32°42' W 117°10'0 0.5
2015-Jul-27 21:33N 32°42' W 117°09'0 0.0
2015-Jul-27 20:31N 32°42' W 117°09'0 0.0
2015-Jul-27 19:33N 32°42' W 117°09'0 0.0
2015-Jul-27 18:32N 32°42' W 117°09'0 0.0
2015-Jul-27 17:32N 32°42' W 117°09'0 0.0
2015-Jul-27 16:33N 32°42' W 117°09'0 0.0
2015-Jul-27 15:24N 32°42' W 117°09'0 0.0
2015-Jul-27 14:30N 32°42' W 117°09'0 0.0
2015-Jul-27 13:33N 32°42' W 117°09'0 0.0
2015-Jul-27 11:33N 32°42' W 117°09'0 0.0
2015-Jul-27 10:24N 32°42' W 117°09'0 0.0
2015-Jul-27 09:32N 32°42' W 117°09'0 0.0
2015-Jul-27 08:33N 32°42' W 117°09'0 0.0
2015-Jul-27 07:31N 32°42' W 117°09'0 0.0
2015-Jul-27 06:30N 32°42' W 117°09'0 0.0
2015-Jul-27 04:20N 32°42' W 117°09'0 0.0
2015-Jul-27 03:25N 32°42' W 117°09'0 0.0
2015-Jul-27 02:33N 32°42' W 117°09'0 0.0
2015-Jul-27 01:31N 32°42' W 117°09'0 0.0
2015-Jul-27 00:29N 32°42' W 117°09'0 0.0
2015-Jul-26 23:29N 32°42' W 117°09'0 0.0
2015-Jul-26 22:32N 32°42' W 117°09'0 0.0
2015-Jul-26 19:27N 32°42' W 117°09'0 0.1
2015-Jul-26 18:33N 32°42' W 117°09'0 0.0
2015-Jul-26 17:23N 32°42' W 117°09'0 0.0
2015-Jul-26 16:21N 32°42' W 117°09'0 0.0
2015-Jul-26 15:33N 32°42' W 117°09'0 0.0
2015-Jul-26 14:33N 32°42' W 117°09'0 0.0
2015-Jul-26 13:33N 32°42' W 117°09'2 2.4
2015-Jul-26 12:33N 32°43' W 117°11'2 2.3
2015-Jul-26 11:31N 32°42' W 117°09'0 0.0
2015-Jul-26 10:33N 32°42' W 117°09'0 0.0
2015-Jul-26 09:33N 32°42' W 117°09'0 0.0
2015-Jul-26 08:33N 32°42' W 117°09'0 0.0
2015-Jul-26 07:33N 32°42' W 117°09'0 0.0
2015-Jul-26 06:11N 32°42' W 117°09'0 0.0
2015-Jul-26 05:32N 32°42' W 117°09'0 0.0
2015-Jul-26 04:33N 32°42' W 117°09'0 0.0
2015-Jul-26 03:28N 32°42' W 117°09'0 0.0
2015-Jul-26 02:33N 32°42' W 117°09'0 0.0
2015-Jul-26 01:33N 32°42' W 117°09'0 0.1
2015-Jul-26 00:33N 32°42' W 117°09'3 2.6
2015-Jul-25 23:33N 32°40' W 117°07'3 2.6
2015-Jul-25 22:33N 32°42' W 117°09'0 0.0
2015-Jul-25 21:28N 32°42' W 117°09'0 0.0
2015-Jul-25 20:28N 32°42' W 117°09'0 0.0
2015-Jul-25 19:29N 32°42' W 117°09'0 0.0
2015-Jul-25 18:12N 32°42' W 117°09'0 0.0
2015-Jul-25 17:32N 32°42' W 117°09'0 0.0
2015-Jul-25 16:31N 32°42' W 117°09'0 0.0
2015-Jul-25 15:33N 32°42' W 117°09'0 0.0
2015-Jul-25 14:33N 32°42' W 117°09'0 0.0
2015-Jul-25 12:33N 32°42' W 117°09'0 0.1
2015-Jul-25 11:33N 32°42' W 117°09'0 0.0
2015-Jul-25 10:32N 32°42' W 117°09'0 0.0
2015-Jul-25 07:17N 32°42' W 117°09'1 0.5
2015-Jul-25 05:19N 32°41' W 117°08'0 0.3
2015-Jul-25 04:33N 32°41' W 117°08'1 0.7
2015-Jul-25 03:13N 32°42' W 117°09'0 0.0
2015-Jul-25 01:28N 32°42' W 117°09'3 3.7
2015-Jul-25 00:33N 32°39' W 117°07'1 1.2
2015-Jul-24 23:34N 32°40' W 117°08'2 0.3
2015-Jul-24 16:24N 32°42' W 117°09'0 0.0
2015-Jul-24 15:32N 32°42' W 117°09'0 0.0
2015-Jul-24 14:26N 32°42' W 117°09'3 3.5
2015-Jul-24 13:29N 32°39' W 117°07'3 0.3
2015-Jul-24 00:27N 32°42' W 117°09'0 0.0
2015-Jul-23 23:32N 32°42' W 117°09'0 0.0
2015-Jul-23 22:08N 32°42' W 117°09'0 0.0
2015-Jul-23 21:33N 32°42' W 117°09'0 0.1
2015-Jul-23 20:33N 32°42' W 117°09'1 1.1
2015-Jul-23 19:33N 32°41' W 117°08'1 1.0
2015-Jul-23 18:25N 32°42' W 117°09'0 0.0
2015-Jul-23 16:29N 32°42' W 117°09'0 0.0
2015-Jul-23 14:05N 32°42' W 117°09'3 5.7
2015-Jul-23 13:33N 32°39' W 117°07'3 3.0
2015-Jul-23 12:32N 32°42' W 117°09'0 0.0
2015-Jul-23 11:15N 32°42' W 117°09'3 4.3
2015-Jul-23 10:33N 32°39' W 117°07'2 2.5
2015-Jul-23 09:33N 32°41' W 117°09'0 0.0
2015-Jul-23 08:33N 32°41' W 117°09'1 1.3
2015-Jul-23 07:33N 32°40' W 117°08'1 1.2
2015-Jul-23 06:33N 32°41' W 117°09'1 1.3
2015-Jul-23 05:33N 32°40' W 117°08'2 0.4
2015-Jul-23 00:19N 32°42' W 117°10'0 0.0
2015-Jul-22 23:24N 32°42' W 117°10'0 0.5
2015-Jul-22 22:33N 32°42' W 117°09'0 0.0
2015-Jul-22 21:33N 32°42' W 117°09'0 0.0
2015-Jul-22 20:29N 32°42' W 117°09'0 0.0
2015-Jul-22 19:13N 32°42' W 117°09'0 0.0
2015-Jul-22 18:28N 32°42' W 117°09'0 0.0
2015-Jul-22 17:33N 32°42' W 117°09'0 0.0
2015-Jul-22 16:18N 32°42' W 117°09'0 0.0
2015-Jul-22 15:25N 32°42' W 117°09'2 2.4
2015-Jul-22 14:27N 32°40' W 117°08'4 4.3
2015-Jul-22 13:33N 32°43' W 117°11'2 0.1
2015-Jul-21 23:33N 32°41' W 117°09'2 2.1
2015-Jul-21 22:33N 32°40' W 117°07'3 1.8
2015-Jul-21 21:07N 32°42' W 117°09'0 0.0
2015-Jul-21 20:28N 32°42' W 117°09'0 0.0
2015-Jul-21 18:18N 32°42' W 117°09'0 0.0
2015-Jul-21 17:22N 32°42' W 117°09'0 0.0
2015-Jul-21 16:33N 32°42' W 117°09'0 0.0
2015-Jul-21 15:33N 32°42' W 117°09'1 0.7
2015-Jul-21 14:33N 32°41' W 117°09'0 0.4
2015-Jul-21 13:33N 32°41' W 117°08'2 2.0
2015-Jul-21 12:33N 32°39' W 117°07'3 3.0
2015-Jul-21 11:32N 32°42' W 117°09'0 0.0
2015-Jul-21 06:29N 32°42' W 117°09'0 0.0
2015-Jul-21 03:15N 32°42' W 117°09'0 0.0
2015-Jul-20 23:22N 32°42' W 117°09'3 4.2
2015-Jul-20 22:33N 32°39' W 117°07'  

Dump ship's entire track history